sensor_id;sensor_type;location;lat;lon;timestamp;temperature;humidity
53286;DHT22;39171;45.550;12.074;2022-08-01T00:05:11;28.70;70.60
53286;DHT22;39171;45.550;12.074;2022-08-01T00:11:12;28.70;70.90
53286;DHT22;39171;45.550;12.074;2022-08-01T00:17:14;28.70;71.10
53286;DHT22;39171;45.550;12.074;2022-08-01T00:23:16;28.70;71.50
53286;DHT22;39171;45.550;12.074;2022-08-01T00:29:17;28.70;71.70
53286;DHT22;39171;45.550;12.074;2022-08-01T00:35:19;28.70;71.80
53286;DHT22;39171;45.550;12.074;2022-08-01T00:41:21;28.70;72.10
53286;DHT22;39171;45.550;12.074;2022-08-01T00:47:22;28.70;72.30
53286;DHT22;39171;45.550;12.074;2022-08-01T00:53:24;28.70;72.60
53286;DHT22;39171;45.550;12.074;2022-08-01T00:59:26;28.70;72.90
53286;DHT22;39171;45.550;12.074;2022-08-01T01:05:27;28.70;73.00
53286;DHT22;39171;45.550;12.074;2022-08-01T01:11:41;28.70;73.20
53286;DHT22;39171;45.550;12.074;2022-08-01T01:18:04;28.60;73.70
53286;DHT22;39171;45.550;12.074;2022-08-01T01:24:43;28.60;73.70
53286;DHT22;39171;45.550;12.074;2022-08-01T01:30:50;28.60;73.90
53286;DHT22;39171;45.550;12.074;2022-08-01T01:36:54;28.60;74.30
53286;DHT22;39171;45.550;12.074;2022-08-01T01:42:56;28.60;74.40
53286;DHT22;39171;45.550;12.074;2022-08-01T01:48:59;28.60;74.70
53286;DHT22;39171;45.550;12.074;2022-08-01T01:55:04;28.60;74.60
53286;DHT22;39171;45.550;12.074;2022-08-01T02:01:07;28.50;74.80
53286;DHT22;39171;45.550;12.074;2022-08-01T02:07:12;28.60;75.10
53286;DHT22;39171;45.550;12.074;2022-08-01T02:13:14;28.60;75.40
53286;DHT22;39171;45.550;12.074;2022-08-01T02:19:17;28.50;75.70
53286;DHT22;39171;45.550;12.074;2022-08-01T02:25:31;28.50;75.70
53286;DHT22;39171;45.550;12.074;2022-08-01T02:31:36;28.50;75.90
53286;DHT22;39171;45.550;12.074;2022-08-01T02:37:41;28.50;76.20
53286;DHT22;39171;45.550;12.074;2022-08-01T02:43:48;28.50;76.20
53286;DHT22;39171;45.550;12.074;2022-08-01T02:49:52;28.50;76.30
53286;DHT22;39171;45.550;12.074;2022-08-01T02:55:54;28.50;76.20
53286;DHT22;39171;45.550;12.074;2022-08-01T03:01:58;28.50;76.40
53286;DHT22;39171;45.550;12.074;2022-08-01T03:08:00;28.40;76.40
53286;DHT22;39171;45.550;12.074;2022-08-01T03:14:05;28.40;76.60
53286;DHT22;39171;45.550;12.074;2022-08-01T03:20:11;28.40;76.90
53286;DHT22;39171;45.550;12.074;2022-08-01T03:26:14;28.40;77.00
53286;DHT22;39171;45.550;12.074;2022-08-01T03:32:17;28.40;77.10
53286;DHT22;39171;45.550;12.074;2022-08-01T03:38:24;28.40;77.60
53286;DHT22;39171;45.550;12.074;2022-08-01T03:44:32;28.40;77.50
53286;DHT22;39171;45.550;12.074;2022-08-01T03:50:37;28.40;77.70
53286;DHT22;39171;45.550;12.074;2022-08-01T03:56:41;28.40;77.70
53286;DHT22;39171;45.550;12.074;2022-08-01T04:02:48;28.40;77.70
53286;DHT22;39171;45.550;12.074;2022-08-01T04:08:50;28.30;77.70
53286;DHT22;39171;45.550;12.074;2022-08-01T04:14:57;28.30;77.80
53286;DHT22;39171;45.550;12.074;2022-08-01T04:20:59;28.30;78.00
53286;DHT22;39171;45.550;12.074;2022-08-01T04:27:02;28.30;78.30
53286;DHT22;39171;45.550;12.074;2022-08-01T04:33:08;28.30;78.40
53286;DHT22;39171;45.550;12.074;2022-08-01T04:39:10;28.30;78.50
53286;DHT22;39171;45.550;12.074;2022-08-01T04:45:13;28.30;78.60
53286;DHT22;39171;45.550;12.074;2022-08-01T04:51:17;28.30;78.80
53286;DHT22;39171;45.550;12.074;2022-08-01T04:57:19;28.30;78.90
53286;DHT22;39171;45.550;12.074;2022-08-01T05:03:20;28.30;79.20
53286;DHT22;39171;45.550;12.074;2022-08-01T05:09:22;28.30;79.20
53286;DHT22;39171;45.550;12.074;2022-08-01T05:15:23;28.20;79.40
53286;DHT22;39171;45.550;12.074;2022-08-01T05:21:25;28.20;79.20
53286;DHT22;39171;45.550;12.074;2022-08-01T05:27:27;28.20;79.30
53286;DHT22;39171;45.550;12.074;2022-08-01T05:33:29;28.20;79.40
53286;DHT22;39171;45.550;12.074;2022-08-01T05:39:30;28.20;79.60
53286;DHT22;39171;45.550;12.074;2022-08-01T05:45:32;28.20;79.50
53286;DHT22;39171;45.550;12.074;2022-08-01T05:51:33;28.20;79.60
53286;DHT22;39171;45.550;12.074;2022-08-01T05:57:35;28.20;79.40
53286;DHT22;39171;45.550;12.074;2022-08-01T06:03:36;28.20;79.70
53286;DHT22;39171;45.550;12.074;2022-08-01T06:09:38;28.20;79.70
53286;DHT22;39171;45.550;12.074;2022-08-01T06:15:39;28.20;79.80
53286;DHT22;39171;45.550;12.074;2022-08-01T06:21:41;28.20;79.60
53286;DHT22;39171;45.550;12.074;2022-08-01T06:27:43;28.20;79.70
53286;DHT22;39171;45.550;12.074;2022-08-01T06:33:45;28.20;79.70
53286;DHT22;39171;45.550;12.074;2022-08-01T06:39:46;28.30;79.60
53286;DHT22;39171;45.550;12.074;2022-08-01T06:45:48;28.30;79.50
53286;DHT22;39171;45.550;12.074;2022-08-01T06:51:50;28.30;79.40
53286;DHT22;39171;45.550;12.074;2022-08-01T06:57:52;28.30;79.30
53286;DHT22;39171;45.550;12.074;2022-08-01T07:03:54;28.30;79.30
53286;DHT22;39171;45.550;12.074;2022-08-01T07:09:56;28.30;79.30
53286;DHT22;39171;45.550;12.074;2022-08-01T07:15:57;28.30;79.20
53286;DHT22;39171;45.550;12.074;2022-08-01T07:21:59;28.30;79.20
53286;DHT22;39171;45.550;12.074;2022-08-01T07:28:00;28.30;79.10
53286;DHT22;39171;45.550;12.074;2022-08-01T07:34:02;28.30;78.90
53286;DHT22;39171;45.550;12.074;2022-08-01T07:40:11;28.30;78.90
53286;DHT22;39171;45.550;12.074;2022-08-01T07:46:12;28.30;78.90
53286;DHT22;39171;45.550;12.074;2022-08-01T07:52:13;28.30;78.70
53286;DHT22;39171;45.550;12.074;2022-08-01T07:58:16;28.30;78.60
53286;DHT22;39171;45.550;12.074;2022-08-01T08:04:18;28.30;78.70
53286;DHT22;39171;45.550;12.074;2022-08-01T08:10:23;28.30;78.60
53286;DHT22;39171;45.550;12.074;2022-08-01T08:16:25;28.30;78.40
53286;DHT22;39171;45.550;12.074;2022-08-01T08:22:27;28.30;78.30
53286;DHT22;39171;45.550;12.074;2022-08-01T08:28:29;28.40;78.20
53286;DHT22;39171;45.550;12.074;2022-08-01T08:34:30;28.30;77.70
53286;DHT22;39171;45.550;12.074;2022-08-01T08:40:32;28.40;77.40
53286;DHT22;39171;45.550;12.074;2022-08-01T08:46:49;28.40;76.90
53286;DHT22;39171;45.550;12.074;2022-08-01T08:52:53;28.40;76.70
53286;DHT22;39171;45.550;12.074;2022-08-01T08:58:56;28.50;76.40
53286;DHT22;39171;45.550;12.074;2022-08-01T09:04:58;28.50;76.60
53286;DHT22;39171;45.550;12.074;2022-08-01T09:10:59;28.50;76.30
53286;DHT22;39171;45.550;12.074;2022-08-01T09:17:09;28.60;75.40
53286;DHT22;39171;45.550;12.074;2022-08-01T09:23:31;28.60;75.50
53286;DHT22;39171;45.550;12.074;2022-08-01T09:29:33;28.60;75.00
53286;DHT22;39171;45.550;12.074;2022-08-01T09:35:35;28.60;74.60
53286;DHT22;39171;45.550;12.074;2022-08-01T09:41:38;28.60;74.70
53286;DHT22;39171;45.550;12.074;2022-08-01T09:47:40;28.60;74.50
53286;DHT22;39171;45.550;12.074;2022-08-01T09:53:45;28.70;73.90
53286;DHT22;39171;45.550;12.074;2022-08-01T09:59:55;28.80;73.00
53286;DHT22;39171;45.550;12.074;2022-08-01T10:05:57;28.80;72.50
53286;DHT22;39171;45.550;12.074;2022-08-01T10:12:04;28.80;72.10
53286;DHT22;39171;45.550;12.074;2022-08-01T10:18:07;28.80;71.30
53286;DHT22;39171;45.550;12.074;2022-08-01T10:24:11;28.80;70.90
53286;DHT22;39171;45.550;12.074;2022-08-01T10:30:13;28.90;70.00
53286;DHT22;39171;45.550;12.074;2022-08-01T10:36:34;29.00;69.00
53286;DHT22;39171;45.550;12.074;2022-08-01T10:42:44;29.00;68.40
53286;DHT22;39171;45.550;12.074;2022-08-01T10:48:55;29.00;67.90
53286;DHT22;39171;45.550;12.074;2022-08-01T10:55:05;29.00;67.40
53286;DHT22;39171;45.550;12.074;2022-08-01T11:01:25;29.10;66.70
53286;DHT22;39171;45.550;12.074;2022-08-01T11:07:45;29.10;66.10
53286;DHT22;39171;45.550;12.074;2022-08-01T11:20:12;29.10;65.20
53286;DHT22;39171;45.550;12.074;2022-08-01T11:26:15;29.20;64.40
53286;DHT22;39171;45.550;12.074;2022-08-01T11:32:27;29.30;63.90
53286;DHT22;39171;45.550;12.074;2022-08-01T11:38:28;29.30;63.10
53286;DHT22;39171;45.550;12.074;2022-08-01T11:44:48;29.30;62.50
53286;DHT22;39171;45.550;12.074;2022-08-01T11:50:52;29.30;61.80
53286;DHT22;39171;45.550;12.074;2022-08-01T11:56:58;29.30;61.60
53286;DHT22;39171;45.550;12.074;2022-08-01T12:03:05;29.40;61.10
53286;DHT22;39171;45.550;12.074;2022-08-01T12:09:22;29.40;60.50
53286;DHT22;39171;45.550;12.074;2022-08-01T12:15:34;29.50;60.20
53286;DHT22;39171;45.550;12.074;2022-08-01T12:21:36;29.50;59.90
53286;DHT22;39171;45.550;12.074;2022-08-01T12:27:39;29.60;59.80
53286;DHT22;39171;45.550;12.074;2022-08-01T12:33:41;29.60;59.30
53286;DHT22;39171;45.550;12.074;2022-08-01T12:39:43;29.70;59.00
53286;DHT22;39171;45.550;12.074;2022-08-01T12:45:47;29.70;58.70
53286;DHT22;39171;45.550;12.074;2022-08-01T12:51:50;29.80;58.30
53286;DHT22;39171;45.550;12.074;2022-08-01T12:58:06;29.80;57.70
53286;DHT22;39171;45.550;12.074;2022-08-01T13:04:08;30.00;57.60
53286;DHT22;39171;45.550;12.074;2022-08-01T13:10:11;30.00;57.40
53286;DHT22;39171;45.550;12.074;2022-08-01T13:16:17;30.00;57.20
53286;DHT22;39171;45.550;12.074;2022-08-01T13:22:18;30.10;56.80
53286;DHT22;39171;45.550;12.074;2022-08-01T13:28:23;30.20;56.60
53286;DHT22;39171;45.550;12.074;2022-08-01T13:34:34;30.20;56.00
53286;DHT22;39171;45.550;12.074;2022-08-01T13:40:35;30.30;55.70
53286;DHT22;39171;45.550;12.074;2022-08-01T13:46:38;30.30;55.30
53286;DHT22;39171;45.550;12.074;2022-08-01T13:52:40;30.30;55.10
53286;DHT22;39171;45.550;12.074;2022-08-01T13:58:42;30.40;54.80
53286;DHT22;39171;45.550;12.074;2022-08-01T14:04:43;30.40;54.60
53286;DHT22;39171;45.550;12.074;2022-08-01T14:10:45;30.50;54.60
53286;DHT22;39171;45.550;12.074;2022-08-01T14:16:46;30.50;54.20
53286;DHT22;39171;45.550;12.074;2022-08-01T14:22:48;30.60;54.10
53286;DHT22;39171;45.550;12.074;2022-08-01T14:28:49;30.50;53.80
53286;DHT22;39171;45.550;12.074;2022-08-01T14:34:51;30.60;53.70
53286;DHT22;39171;45.550;12.074;2022-08-01T14:40:53;30.60;53.60
53286;DHT22;39171;45.550;12.074;2022-08-01T14:46:55;30.60;53.50
53286;DHT22;39171;45.550;12.074;2022-08-01T14:52:56;30.60;53.50
53286;DHT22;39171;45.550;12.074;2022-08-01T14:58:58;30.60;53.30
53286;DHT22;39171;45.550;12.074;2022-08-01T15:05:04;30.50;53.30
53286;DHT22;39171;45.550;12.074;2022-08-01T15:11:05;30.50;53.20
53286;DHT22;39171;45.550;12.074;2022-08-01T15:17:09;30.40;53.00
53286;DHT22;39171;45.550;12.074;2022-08-01T15:23:11;30.40;52.90
53286;DHT22;39171;45.550;12.074;2022-08-01T15:29:12;30.40;52.60
53286;DHT22;39171;45.550;12.074;2022-08-01T15:35:14;30.30;52.60
53286;DHT22;39171;45.550;12.074;2022-08-01T15:41:16;30.30;52.50
53286;DHT22;39171;45.550;12.074;2022-08-01T15:47:17;30.30;52.10
53286;DHT22;39171;45.550;12.074;2022-08-01T15:53:19;30.30;52.20
53286;DHT22;39171;45.550;12.074;2022-08-01T15:59:20;30.30;52.10
53286;DHT22;39171;45.550;12.074;2022-08-01T16:05:22;30.30;51.80
53286;DHT22;39171;45.550;12.074;2022-08-01T16:11:24;30.30;51.60
53286;DHT22;39171;45.550;12.074;2022-08-01T16:17:27;30.30;51.70
53286;DHT22;39171;45.550;12.074;2022-08-01T16:23:29;30.20;51.70
53286;DHT22;39171;45.550;12.074;2022-08-01T16:29:31;30.20;51.60
53286;DHT22;39171;45.550;12.074;2022-08-01T16:35:32;30.20;51.60
53286;DHT22;39171;45.550;12.074;2022-08-01T16:41:34;30.20;51.60
53286;DHT22;39171;45.550;12.074;2022-08-01T16:47:35;30.20;51.40
53286;DHT22;39171;45.550;12.074;2022-08-01T16:53:37;30.20;51.30
53286;DHT22;39171;45.550;12.074;2022-08-01T16:59:38;30.10;51.30
53286;DHT22;39171;45.550;12.074;2022-08-01T17:05:40;30.10;51.00
53286;DHT22;39171;45.550;12.074;2022-08-01T17:11:41;30.10;50.90
53286;DHT22;39171;45.550;12.074;2022-08-01T17:17:43;30.00;51.00
53286;DHT22;39171;45.550;12.074;2022-08-01T17:23:44;30.00;50.90
53286;DHT22;39171;45.550;12.074;2022-08-01T17:29:46;30.00;50.90
53286;DHT22;39171;45.550;12.074;2022-08-01T17:35:47;30.00;50.80
53286;DHT22;39171;45.550;12.074;2022-08-01T17:41:49;29.90;51.00
53286;DHT22;39171;45.550;12.074;2022-08-01T17:47:50;29.90;51.20
53286;DHT22;39171;45.550;12.074;2022-08-01T17:53:52;29.90;51.20
53286;DHT22;39171;45.550;12.074;2022-08-01T17:59:54;29.80;51.40
53286;DHT22;39171;45.550;12.074;2022-08-01T18:05:57;29.80;51.40
53286;DHT22;39171;45.550;12.074;2022-08-01T18:11:59;29.80;51.50
53286;DHT22;39171;45.550;12.074;2022-08-01T18:18:01;29.80;51.70
53286;DHT22;39171;45.550;12.074;2022-08-01T18:24:02;29.80;52.00
53286;DHT22;39171;45.550;12.074;2022-08-01T18:30:09;29.80;52.20
53286;DHT22;39171;45.550;12.074;2022-08-01T18:36:11;29.80;52.40
53286;DHT22;39171;45.550;12.074;2022-08-01T18:42:13;29.80;52.60
53286;DHT22;39171;45.550;12.074;2022-08-01T18:48:14;29.70;52.80
53286;DHT22;39171;45.550;12.074;2022-08-01T18:54:16;29.70;53.00
53286;DHT22;39171;45.550;12.074;2022-08-01T19:00:18;29.70;53.20
53286;DHT22;39171;45.550;12.074;2022-08-01T19:06:20;29.60;53.30
53286;DHT22;39171;45.550;12.074;2022-08-01T19:12:21;29.60;53.60
53286;DHT22;39171;45.550;12.074;2022-08-01T19:18:23;29.60;53.80
53286;DHT22;39171;45.550;12.074;2022-08-01T19:24:25;29.60;54.00
53286;DHT22;39171;45.550;12.074;2022-08-01T19:30:27;29.50;54.20
53286;DHT22;39171;45.550;12.074;2022-08-01T19:36:37;29.50;54.40
53286;DHT22;39171;45.550;12.074;2022-08-01T19:42:40;29.40;54.60
53286;DHT22;39171;45.550;12.074;2022-08-01T19:48:42;29.40;54.90
53286;DHT22;39171;45.550;12.074;2022-08-01T19:54:44;29.40;55.30
53286;DHT22;39171;45.550;12.074;2022-08-01T20:00:49;29.40;55.70
53286;DHT22;39171;45.550;12.074;2022-08-01T20:06:51;29.40;56.30
53286;DHT22;39171;45.550;12.074;2022-08-01T20:12:55;29.30;56.80
53286;DHT22;39171;45.550;12.074;2022-08-01T20:18:58;29.30;57.60
53286;DHT22;39171;45.550;12.074;2022-08-01T20:25:00;29.30;58.10
53286;DHT22;39171;45.550;12.074;2022-08-01T20:31:02;29.30;58.70
53286;DHT22;39171;45.550;12.074;2022-08-01T20:37:07;29.30;59.20
53286;DHT22;39171;45.550;12.074;2022-08-01T20:43:12;29.30;59.60
53286;DHT22;39171;45.550;12.074;2022-08-01T20:49:14;29.30;60.40
53286;DHT22;39171;45.550;12.074;2022-08-01T20:55:16;29.30;60.70
53286;DHT22;39171;45.550;12.074;2022-08-01T21:01:23;29.20;61.30
53286;DHT22;39171;45.550;12.074;2022-08-01T21:07:57;29.30;61.50
53286;DHT22;39171;45.550;12.074;2022-08-01T21:14:04;29.30;61.90
53286;DHT22;39171;45.550;12.074;2022-08-01T21:20:12;29.20;62.30
53286;DHT22;39171;45.550;12.074;2022-08-01T21:26:13;29.20;62.80
53286;DHT22;39171;45.550;12.074;2022-08-01T21:32:15;29.20;63.20
53286;DHT22;39171;45.550;12.074;2022-08-01T21:38:18;29.20;63.40
53286;DHT22;39171;45.550;12.074;2022-08-01T21:44:24;29.20;63.80
53286;DHT22;39171;45.550;12.074;2022-08-01T21:50:28;29.20;64.20
53286;DHT22;39171;45.550;12.074;2022-08-01T22:03:21;29.20;65.00
53286;DHT22;39171;45.550;12.074;2022-08-01T22:09:23;29.20;65.50
53286;DHT22;39171;45.550;12.074;2022-08-01T22:15:28;29.20;65.50
53286;DHT22;39171;45.550;12.074;2022-08-01T22:21:30;29.20;65.90
53286;DHT22;39171;45.550;12.074;2022-08-01T22:27:31;29.20;66.00
53286;DHT22;39171;45.550;12.074;2022-08-01T22:33:35;29.20;66.30
53286;DHT22;39171;45.550;12.074;2022-08-01T22:39:36;29.10;66.80
53286;DHT22;39171;45.550;12.074;2022-08-01T22:45:45;29.10;67.00
53286;DHT22;39171;45.550;12.074;2022-08-01T22:58:01;29.10;67.70
53286;DHT22;39171;45.550;12.074;2022-08-01T23:04:03;29.10;68.00
53286;DHT22;39171;45.550;12.074;2022-08-01T23:10:06;29.10;68.20
53286;DHT22;39171;45.550;12.074;2022-08-01T23:16:08;29.10;68.40
53286;DHT22;39171;45.550;12.074;2022-08-01T23:22:11;29.10;68.60
53286;DHT22;39171;45.550;12.074;2022-08-01T23:28:15;29.10;69.00
53286;DHT22;39171;45.550;12.074;2022-08-01T23:34:16;29.10;69.30
53286;DHT22;39171;45.550;12.074;2022-08-01T23:40:18;29.00;69.70
53286;DHT22;39171;45.550;12.074;2022-08-01T23:46:20;29.00;70.00
53286;DHT22;39171;45.550;12.074;2022-08-01T23:52:21;29.00;70.40
53286;DHT22;39171;45.550;12.074;2022-08-01T23:58:22;29.00;70.70
